Time;durP1;ratioP1;P1;durP2;ratioP2;P2;SDS_P1;SDS_P2;PMS_P1;PMS_P2;Temp;Humidity;BMP_temperature;BMP_pressure;BME280_temperature;BME280_humidity;BME280_pressure;Samples;Min_cycle;Max_cycle;Signal;HPM_P1;HPM_P2
2022/09/21 00:00:32;;;;;;;2.13;1.90;;;;;;;;;;5017303;27;92411;-64
2022/09/21 00:02:58;;;;;;;3.90;2.10;;;;;;;;;;5015072;28;92447;-65
2022/09/21 00:05:25;;;;;;;1.60;1.50;;;;;;;;;;5015830;28;93297;-65
2022/09/21 00:07:51;;;;;;;2.67;2.10;;;;;;;;;;5015382;28;92416;-65
2022/09/21 00:10:19;;;;;;;2.40;2.20;;;;;;;;;;5031356;28;93020;-65
2022/09/21 00:12:47;;;;;;;2.42;1.98;;;;;;;;;;5035542;27;93441;-65
2022/09/21 00:15:14;;;;;;;1.80;1.70;;;;;;;;;;5036637;27;91712;-64
2022/09/21 00:17:41;;;;;;;4.63;1.73;;;;;;;;;;5034110;27;92363;-64
2022/09/21 00:20:07;;;;;;;2.42;2.20;;;;;;;;;;5015687;28;92526;-65
2022/09/21 00:22:34;;;;;;;2.05;1.95;;;;;;;;;;5013484;28;94853;-64
2022/09/21 00:25:02;;;;;;;4.40;2.17;;;;;;;;;;5013981;28;93399;-64
2022/09/21 00:27:29;;;;;;;1.83;1.73;;;;;;;;;;5015954;28;92367;-64
2022/09/21 00:29:56;;;;;;;2.55;2.33;;;;;;;;;;5014857;28;92994;-64
2022/09/21 00:32:24;;;;;;;2.10;1.80;;;;;;;;;;5015481;28;93670;-64
2022/09/21 00:34:50;;;;;;;2.30;2.10;;;;;;;;;;5015370;28;92987;-65
2022/09/21 00:37:17;;;;;;;3.28;1.85;;;;;;;;;;5013905;28;92989;-64
2022/09/21 00:39:44;;;;;;;2.13;1.83;;;;;;;;;;5018553;28;92542;-64
2022/09/21 00:42:18;;;;;;;3.03;1.63;;;;;;;;;;5016050;28;92424;-64
2022/09/21 00:44:44;;;;;;;1.88;1.65;;;;;;;;;;4994786;28;93371;-64
2022/09/21 00:47:15;;;;;;;2.03;1.92;;;;;;;;;;5002131;28;95809;-64
2022/09/21 00:49:44;;;;;;;2.78;1.83;;;;;;;;;;5014382;28;95249;-65
2022/09/21 00:52:13;;;;;;;3.10;2.38;;;;;;;;;;5014275;28;94346;-64
2022/09/21 00:54:43;;;;;;;2.10;1.90;;;;;;;;;;5015367;28;92381;-65
2022/09/21 00:57:10;;;;;;;2.30;2.10;;;;;;;;;;5014335;28;92946;-64
2022/09/21 00:59:37;;;;;;;2.70;2.40;;;;;;;;;;5014513;28;93535;-64
2022/09/21 01:02:04;;;;;;;1.98;1.80;;;;;;;;;;5018198;28;92433;-63
2022/09/21 01:04:30;;;;;;;2.58;1.90;;;;;;;;;;5015307;28;92469;-63
2022/09/21 01:06:58;;;;;;;2.53;2.17;;;;;;;;;;5013795;28;92701;-64
2022/09/21 01:09:25;;;;;;;2.75;1.80;;;;;;;;;;5015556;28;92863;-63
2022/09/21 01:11:54;;;;;;;2.17;1.90;;;;;;;;;;5012598;28;95903;-63
2022/09/21 01:14:36;;;;;;;2.70;2.03;;;;;;;;;;5014344;28;92475;-63
2022/09/21 01:17:05;;;;;;;1.95;1.75;;;;;;;;;;5015283;28;93126;-63
2022/09/21 01:19:46;;;;;;;2.58;1.90;;;;;;;;;;5013763;28;92368;-63
2022/09/21 01:22:13;;;;;;;1.95;1.85;;;;;;;;;;5017814;28;92420;-63
2022/09/21 01:24:39;;;;;;;2.13;1.95;;;;;;;;;;5014391;28;94202;-63
2022/09/21 01:27:06;;;;;;;2.13;1.67;;;;;;;;;;5013749;28;92424;-63
2022/09/21 01:29:50;;;;;;;2.40;2.20;;;;;;;;;;5015289;28;93535;-63
2022/09/21 01:32:26;;;;;;;4.05;2.10;;;;;;;;;;5012461;28;94880;-63
2022/09/21 01:35:07;;;;;;;2.35;2.15;;;;;;;;;;5007732;28;92458;-65
2022/09/21 01:37:49;;;;;;;1.80;1.70;;;;;;;;;;5013382;28;94743;-66
2022/09/21 01:40:29;;;;;;;1.90;1.80;;;;;;;;;;5013766;28;94177;-66
2022/09/21 01:43:02;;;;;;;4.53;2.25;;;;;;;;;;5014335;28;92464;-66
2022/09/21 01:45:30;;;;;;;1.98;1.77;;;;;;;;;;5016944;28;92886;-63
2022/09/21 01:47:58;;;;;;;1.83;1.73;;;;;;;;;;5013960;28;92483;-63
2022/09/21 01:50:26;;;;;;;2.72;1.92;;;;;;;;;;5018848;28;93908;-63
2022/09/21 01:53:01;;;;;;;2.42;2.08;;;;;;;;;;5037377;28;94105;-63
2022/09/21 01:55:31;;;;;;;2.33;1.88;;;;;;;;;;5037493;27;91719;-63
2022/09/21 01:58:01;;;;;;;3.78;2.00;;;;;;;;;;5037097;28;92509;-63
2022/09/21 02:00:28;;;;;;;2.42;1.70;;;;;;;;;;5037610;28;93381;-63
2022/09/21 02:03:08;;;;;;;2.38;1.85;;;;;;;;;;5035037;28;95297;-64
2022/09/21 02:05:35;;;;;;;1.90;1.70;;;;;;;;;;5038249;27;95436;-63
2022/09/21 02:08:02;;;;;;;2.20;1.90;;;;;;;;;;5039766;28;94233;-63
2022/09/21 02:10:38;;;;;;;2.65;1.92;;;;;;;;;;5036826;27;93414;-63
2022/09/21 02:13:05;;;;;;;2.08;1.88;;;;;;;;;;5037400;28;93398;-63
2022/09/21 02:15:50;;;;;;;2.50;1.65;;;;;;;;;;5036616;27;92458;-63
2022/09/21 02:18:39;;;;;;;2.00;1.88;;;;;;;;;;5027309;27;92400;-63
2022/09/21 02:21:10;;;;;;;1.98;1.80;;;;;;;;;;4996377;28;92387;-63
2022/09/21 02:23:42;;;;;;;2.30;1.60;;;;;;;;;;5016036;28;92374;-63
2022/09/21 02:26:12;;;;;;;2.20;2.10;;;;;;;;;;5017628;28;93210;-63
2022/09/21 02:28:51;;;;;;;1.90;1.73;;;;;;;;;;5015482;28;95576;-63
2022/09/21 02:31:34;;;;;;;2.20;2.00;;;;;;;;;;5019816;28;92841;-63
2022/09/21 02:34:03;;;;;;;2.40;1.85;;;;;;;;;;5016794;28;93529;-63
2022/09/21 02:36:37;;;;;;;3.58;1.67;;;;;;;;;;5016834;28;92548;-63
2022/09/21 02:39:07;;;;;;;1.88;1.77;;;;;;;;;;5017225;28;93950;-66
2022/09/21 02:41:44;;;;;;;3.20;2.40;;;;;;;;;;5017783;28;94829;-68
2022/09/21 02:44:14;;;;;;;3.90;2.03;;;;;;;;;;5016634;28;92362;-64
2022/09/21 02:46:43;;;;;;;2.15;1.95;;;;;;;;;;5017226;28;92222;-63
2022/09/21 02:49:12;;;;;;;1.83;1.73;;;;;;;;;;5016122;28;93336;-63
2022/09/21 02:51:41;;;;;;;3.25;1.75;;;;;;;;;;5015961;28;92778;-63
2022/09/21 02:54:09;;;;;;;2.45;1.90;;;;;;;;;;5018122;28;94672;-63
2022/09/21 02:56:36;;;;;;;4.47;2.38;;;;;;;;;;5017508;28;92415;-63
2022/09/21 02:59:03;;;;;;;1.92;1.83;;;;;;;;;;5021811;27;93124;-63
2022/09/21 03:01:30;;;;;;;1.90;1.80;;;;;;;;;;5036353;28;94126;-63
2022/09/21 03:03:57;;;;;;;2.78;1.90;;;;;;;;;;5036620;28;93201;-63
2022/09/21 03:06:23;;;;;;;3.33;1.95;;;;;;;;;;5032360;28;93019;-63
2022/09/21 03:08:49;;;;;;;2.35;1.90;;;;;;;;;;5016150;28;94232;-63
2022/09/21 03:11:16;;;;;;;2.05;1.80;;;;;;;;;;5017239;28;91661;-63
2022/09/21 03:13:43;;;;;;;3.00;1.90;;;;;;;;;;5015746;28;92747;-63
2022/09/21 03:16:10;;;;;;;2.40;1.77;;;;;;;;;;5019927;28;94103;-63
2022/09/21 03:18:38;;;;;;;1.80;1.70;;;;;;;;;;5014524;28;95019;-63
2022/09/21 03:21:04;;;;;;;2.25;1.98;;;;;;;;;;5015295;28;93433;-63
2022/09/21 03:23:31;;;;;;;2.08;1.73;;;;;;;;;;5016695;28;92214;-63
2022/09/21 03:25:57;;;;;;;1.80;1.70;;;;;;;;;;5014941;28;93073;-63
2022/09/21 03:28:24;;;;;;;3.80;1.90;;;;;;;;;;5016195;28;93362;-63
2022/09/21 03:30:50;;;;;;;2.53;2.33;;;;;;;;;;5016115;28;92432;-63
2022/09/21 03:33:18;;;;;;;1.88;1.77;;;;;;;;;;5014416;28;94151;-63
2022/09/21 03:35:44;;;;;;;1.80;1.70;;;;;;;;;;5019932;28;92693;-63
2022/09/21 03:38:11;;;;;;;1.90;1.80;;;;;;;;;;5016669;28;92384;-63
2022/09/21 03:40:37;;;;;;;1.83;1.73;;;;;;;;;;5015394;28;93237;-63
2022/09/21 03:43:04;;;;;;;1.90;1.73;;;;;;;;;;5014387;28;94919;-63
2022/09/21 03:45:30;;;;;;;2.05;1.88;;;;;;;;;;5016093;28;95190;-63
2022/09/21 03:47:58;;;;;;;2.10;1.90;;;;;;;;;;5014374;28;93209;-63
2022/09/21 03:50:27;;;;;;;2.20;1.80;;;;;;;;;;5017215;28;92669;-63
2022/09/21 03:52:54;;;;;;;1.85;1.75;;;;;;;;;;5015676;28;92926;-63
2022/09/21 03:55:21;;;;;;;1.80;1.70;;;;;;;;;;5015760;28;93540;-63
2022/09/21 03:57:48;;;;;;;2.42;2.22;;;;;;;;;;5019231;28;92425;-63
2022/09/21 04:00:14;;;;;;;6.57;1.70;;;;;;;;;;5017231;28;92418;-64
2022/09/21 04:02:40;;;;;;;2.10;1.70;;;;;;;;;;5015879;28;92428;-64
2022/09/21 04:05:08;;;;;;;1.95;1.85;;;;;;;;;;5016466;28;93089;-64
2022/09/21 04:07:34;;;;;;;1.73;1.60;;;;;;;;;;5014546;28;95590;-63
2022/09/21 04:10:02;;;;;;;1.70;1.60;;;;;;;;;;5014601;28;93171;-64
2022/09/21 04:12:28;;;;;;;2.58;1.80;;;;;;;;;;5015881;28;93062;-63
2022/09/21 04:14:55;;;;;;;3.78;1.60;;;;;;;;;;5015673;28;94246;-64
2022/09/21 04:17:21;;;;;;;5.30;2.90;;;;;;;;;;5015212;28;92354;-64
2022/09/21 04:19:47;;;;;;;1.95;1.80;;;;;;;;;;5018765;28;93102;-63
2022/09/21 04:22:14;;;;;;;1.90;1.80;;;;;;;;;;5014349;28;92690;-64
2022/09/21 04:24:40;;;;;;;1.83;1.73;;;;;;;;;;5027210;28;92941;-64
2022/09/21 04:27:10;;;;;;;1.77;1.67;;;;;;;;;;5034973;28;93198;-65
2022/09/21 04:29:36;;;;;;;2.45;1.85;;;;;;;;;;5035153;28;92774;-64
2022/09/21 04:32:03;;;;;;;3.17;2.25;;;;;;;;;;5033718;27;94773;-64
2022/09/21 04:34:30;;;;;;;1.77;1.55;;;;;;;;;;5035173;28;93548;-64
2022/09/21 04:36:57;;;;;;;1.95;1.77;;;;;;;;;;5034727;28;92635;-64
2022/09/21 04:39:23;;;;;;;1.90;1.80;;;;;;;;;;5035358;27;93159;-64
2022/09/21 04:41:50;;;;;;;2.05;1.67;;;;;;;;;;5037205;28;93504;-64
2022/09/21 04:44:18;;;;;;;1.77;1.67;;;;;;;;;;5034626;28;92707;-64
2022/09/21 04:46:44;;;;;;;3.70;1.80;;;;;;;;;;5022402;28;94135;-64
2022/09/21 04:49:10;;;;;;;1.90;1.80;;;;;;;;;;5014967;28;92738;-64
2022/09/21 04:51:37;;;;;;;1.90;1.80;;;;;;;;;;5013417;28;92429;-64
2022/09/21 04:54:03;;;;;;;2.22;2.03;;;;;;;;;;5012205;28;93425;-64
2022/09/21 04:56:29;;;;;;;2.17;1.65;;;;;;;;;;5011422;28;95353;-64
2022/09/21 04:58:56;;;;;;;2.78;2.05;;;;;;;;;;5014317;28;95732;-65
2022/09/21 05:01:22;;;;;;;2.17;1.73;;;;;;;;;;5015020;28;93339;-65
2022/09/21 05:03:49;;;;;;;1.80;1.70;;;;;;;;;;5018011;28;92377;-65
2022/09/21 05:06:15;;;;;;;2.55;1.90;;;;;;;;;;5009555;28;93375;-64
2022/09/21 05:11:26;;;;;;;1.77;1.67;;;;;;;;;;4994425;28;93318;-63
2022/09/21 05:13:53;;;;;;;2.17;2.00;;;;;;;;;;4995604;28;92175;-63
2022/09/21 05:16:19;;;;;;;2.50;1.92;;;;;;;;;;5012512;28;92514;-63
2022/09/21 05:18:46;;;;;;;1.90;1.70;;;;;;;;;;5013974;28;93836;-63
2022/09/21 05:21:13;;;;;;;1.92;1.58;;;;;;;;;;5012259;28;95604;-63
2022/09/21 05:23:39;;;;;;;2.15;1.60;;;;;;;;;;5013935;28;92472;-63
2022/09/21 05:26:06;;;;;;;3.80;2.15;;;;;;;;;;5016739;28;94191;-63
2022/09/21 05:28:32;;;;;;;1.95;1.85;;;;;;;;;;5014708;28;92406;-63
2022/09/21 05:31:04;;;;;;;;;;;;;;;;;;5015035;28;94079;-63
2022/09/21 05:33:56;;;;;;;3.67;1.80;;;;;;;;;;5033538;28;123519;-63
2022/09/21 05:36:34;;;;;;;1.83;1.70;;;;;;;;;;5034633;27;92434;-63
2022/09/21 05:39:01;;;;;;;2.10;2.00;;;;;;;;;;5034503;28;93082;-63
2022/09/21 05:41:27;;;;;;;2.40;2.10;;;;;;;;;;5033641;28;93646;-63
2022/09/21 05:43:53;;;;;;;4.88;2.00;;;;;;;;;;5034613;28;92901;-63
2022/09/21 05:46:40;;;;;;;2.60;2.03;;;;;;;;;;5034161;28;94737;-63
2022/09/21 05:49:20;;;;;;;2.35;1.83;;;;;;;;;;5020391;28;92455;-63
2022/09/21 05:51:53;;;;;;;3.20;1.40;;;;;;;;;;5034289;28;93231;-63
2022/09/21 05:54:22;;;;;;;1.92;1.83;;;;;;;;;;5033455;28;94066;-64
2022/09/21 05:56:51;;;;;;;1.80;1.70;;;;;;;;;;5034255;27;92549;-64
2022/09/21 05:59:17;;;;;;;1.80;1.70;;;;;;;;;;5033894;28;92911;-64
2022/09/21 06:02:02;;;;;;;2.55;1.77;;;;;;;;;;5033295;28;93114;-64
2022/09/21 06:04:28;;;;;;;1.80;1.70;;;;;;;;;;5034208;27;91757;-64
2022/09/21 06:06:55;;;;;;;2.00;1.90;;;;;;;;;;5020536;28;93033;-64
2022/09/21 06:09:21;;;;;;;2.35;1.77;;;;;;;;;;5016174;28;93267;-64
2022/09/21 06:11:47;;;;;;;2.90;1.75;;;;;;;;;;5012538;28;94643;-64
2022/09/21 06:14:14;;;;;;;1.70;1.60;;;;;;;;;;5019580;28;93406;-64
2022/09/21 06:16:41;;;;;;;2.88;1.83;;;;;;;;;;5028953;27;92501;-64
2022/09/21 06:19:11;;;;;;;1.70;1.60;;;;;;;;;;4998762;28;93240;-63
2022/09/21 06:21:37;;;;;;;3.65;1.55;;;;;;;;;;4996723;28;93585;-64
2022/09/21 06:24:04;;;;;;;3.60;1.83;;;;;;;;;;4995374;28;94135;-64
2022/09/21 06:26:30;;;;;;;1.75;1.65;;;;;;;;;;4982029;28;93772;-63
2022/09/21 06:28:56;;;;;;;1.85;1.75;;;;;;;;;;4978749;28;93474;-63
2022/09/21 06:31:23;;;;;;;2.05;1.85;;;;;;;;;;4997554;28;94336;-65
2022/09/21 06:33:49;;;;;;;1.90;1.67;;;;;;;;;;4992131;28;93157;-64
2022/09/21 06:36:16;;;;;;;1.92;1.73;;;;;;;;;;5011476;28;94912;-64
2022/09/21 06:38:42;;;;;;;1.92;1.83;;;;;;;;;;5007500;28;95431;-64
2022/09/21 06:41:09;;;;;;;1.52;1.42;;;;;;;;;;4985092;28;94974;-64
2022/09/21 06:43:35;;;;;;;1.55;1.50;;;;;;;;;;4979830;28;95018;-64
2022/09/21 06:46:01;;;;;;;1.83;1.60;;;;;;;;;;4988119;28;94616;-64
2022/09/21 06:48:29;;;;;;;1.58;1.48;;;;;;;;;;4981385;28;94060;-64
2022/09/21 06:50:56;;;;;;;2.00;1.80;;;;;;;;;;4980348;28;94045;-66
2022/09/21 06:53:23;;;;;;;2.67;1.70;;;;;;;;;;4989392;28;92998;-63
2022/09/21 06:55:49;;;;;;;1.75;1.50;;;;;;;;;;4999628;28;92579;-63
2022/09/21 06:58:15;;;;;;;1.65;1.55;;;;;;;;;;4996650;28;93598;-64
2022/09/21 07:00:42;;;;;;;2.33;1.80;;;;;;;;;;5004487;28;95655;-64
2022/09/21 07:03:09;;;;;;;1.98;1.80;;;;;;;;;;4987857;28;93801;-64
2022/09/21 07:05:36;;;;;;;1.60;1.50;;;;;;;;;;4980910;27;94047;-63
2022/09/21 07:08:02;;;;;;;3.20;1.85;;;;;;;;;;4992599;28;93971;-64
2022/09/21 07:10:29;;;;;;;1.70;1.60;;;;;;;;;;4996387;28;92562;-63
2022/09/21 07:13:01;;;;;;;7.30;2.15;;;;;;;;;;4996841;28;93147;-64
2022/09/21 07:15:28;;;;;;;3.63;2.20;;;;;;;;;;4998787;28;94266;-64
2022/09/21 07:17:55;;;;;;;2.88;2.20;;;;;;;;;;5000755;28;93228;-64
2022/09/21 07:20:31;;;;;;;2.65;2.10;;;;;;;;;;5016675;28;92364;-64
2022/09/21 07:22:57;;;;;;;7.03;2.00;;;;;;;;;;5010107;28;92423;-70
2022/09/21 07:25:23;;;;;;;1.90;1.80;;;;;;;;;;4995712;28;95021;-64
2022/09/21 07:27:50;;;;;;;3.20;2.13;;;;;;;;;;4995584;28;94072;-67
2022/09/21 07:30:16;;;;;;;6.55;2.20;;;;;;;;;;5002433;28;93816;-67
2022/09/21 07:32:42;;;;;;;8.55;2.15;;;;;;;;;;5012221;28;92883;-67
2022/09/21 07:35:09;;;;;;;1.80;1.70;;;;;;;;;;4998990;28;93081;-67
2022/09/21 07:37:35;;;;;;;2.28;2.08;;;;;;;;;;5002231;28;92677;-65
2022/09/21 07:40:04;;;;;;;7.60;2.10;;;;;;;;;;5011457;28;93474;-66
2022/09/21 07:42:31;;;;;;;2.90;1.88;;;;;;;;;;4997745;28;92147;-65
2022/09/21 07:44:57;;;;;;;4.35;1.83;;;;;;;;;;4995473;28;92514;-65
2022/09/21 07:47:30;;;;;;;2.53;2.08;;;;;;;;;;4994999;28;93692;-65
2022/09/21 07:49:56;;;;;;;3.65;2.28;;;;;;;;;;4994140;28;94829;-65
2022/09/21 07:52:23;;;;;;;4.43;2.45;;;;;;;;;;4996221;28;95540;-65
2022/09/21 07:54:49;;;;;;;3.28;1.90;;;;;;;;;;4995167;28;94275;-65
2022/09/21 08:00:00;;;;;;;3.80;1.85;;;;;;;;;;4995621;28;93196;-65
2022/09/21 08:02:36;;;;;;;3.03;1.90;;;;;;;;;;4994843;28;92497;-65
2022/09/21 08:05:03;;;;;;;6.68;2.10;;;;;;;;;;4996098;28;93039;-65
2022/09/21 08:07:30;;;;;;;2.00;1.80;;;;;;;;;;4995383;28;92988;-65
2022/09/21 08:09:57;;;;;;;2.33;1.75;;;;;;;;;;4998692;28;93387;-65
2022/09/21 08:12:23;;;;;;;2.55;1.70;;;;;;;;;;5015290;28;93360;-65
2022/09/21 08:14:49;;;;;;;2.20;2.00;;;;;;;;;;5012815;28;95645;-65
2022/09/21 08:17:16;;;;;;;1.90;1.80;;;;;;;;;;5015167;28;92510;-66
2022/09/21 08:19:42;;;;;;;2.28;1.83;;;;;;;;;;5018590;28;93967;-65
2022/09/21 08:22:11;;;;;;;2.67;1.70;;;;;;;;;;5014015;28;92735;-65
2022/09/21 08:24:37;;;;;;;1.67;1.58;;;;;;;;;;5015972;28;93769;-65
2022/09/21 08:27:04;;;;;;;2.15;1.95;;;;;;;;;;5015153;28;94077;-65
2022/09/21 08:29:30;;;;;;;1.83;1.73;;;;;;;;;;5014572;28;92804;-65
2022/09/21 08:31:56;;;;;;;2.38;1.95;;;;;;;;;;5015578;28;91975;-65
2022/09/21 08:34:23;;;;;;;1.90;1.60;;;;;;;;;;5015087;28;93026;-65
2022/09/21 08:36:49;;;;;;;1.60;1.50;;;;;;;;;;5014553;28;92775;-65
2022/09/21 08:39:21;;;;;;;1.70;1.60;;;;;;;;;;5013407;28;94670;-65
2022/09/21 08:41:47;;;;;;;3.63;1.90;;;;;;;;;;5017962;28;94081;-65
2022/09/21 08:44:16;;;;;;;2.83;1.60;;;;;;;;;;5014255;28;92970;-65
2022/09/21 08:46:43;;;;;;;2.83;1.95;;;;;;;;;;5015432;28;93303;-65
2022/09/21 08:49:13;;;;;;;5.28;1.73;;;;;;;;;;5015144;28;92392;-65
2022/09/21 08:51:48;;;;;;;3.33;1.60;;;;;;;;;;5014565;28;93901;-65
2022/09/21 08:54:26;;;;;;;2.65;1.60;;;;;;;;;;5014912;28;92369;-65
2022/09/21 08:56:53;;;;;;;2.25;1.60;;;;;;;;;;5014565;28;91983;-65
2022/09/21 08:59:30;;;;;;;2.47;1.42;;;;;;;;;;5014668;28;93383;-65
2022/09/21 09:02:10;;;;;;;1.40;1.30;;;;;;;;;;5013696;28;93307;-64
2022/09/21 09:04:52;;;;;;;1.60;1.48;;;;;;;;;;4996142;28;95562;-64
2022/09/21 09:07:20;;;;;;;4.13;1.60;;;;;;;;;;4994710;28;94342;-65
2022/09/21 09:09:49;;;;;;;1.58;1.48;;;;;;;;;;4998371;28;92503;-65
2022/09/21 09:12:21;;;;;;;5.00;1.60;;;;;;;;;;5013656;28;93164;-65
2022/09/21 09:14:47;;;;;;;2.08;1.77;;;;;;;;;;5014600;28;93454;-65
2022/09/21 09:17:32;;;;;;;1.40;1.30;;;;;;;;;;5014770;28;92269;-64
2022/09/21 09:20:01;;;;;;;1.95;1.20;;;;;;;;;;5014505;28;94083;-65
2022/09/21 09:22:33;;;;;;;1.50;1.30;;;;;;;;;;5015387;28;93373;-65
2022/09/21 09:25:02;;;;;;;4.97;1.52;;;;;;;;;;5013514;28;93230;-65
2022/09/21 09:27:40;;;;;;;1.75;1.27;;;;;;;;;;5017407;28;93244;-64
2022/09/21 09:30:19;;;;;;;1.88;1.38;;;;;;;;;;5011549;28;97222;-67
2022/09/21 09:33:01;;;;;;;5.35;1.35;;;;;;;;;;4993961;28;95274;-65
2022/09/21 09:35:29;;;;;;;3.53;1.60;;;;;;;;;;4994729;28;94152;-65
2022/09/21 09:37:58;;;;;;;2.15;1.20;;;;;;;;;;4994890;28;92422;-65
2022/09/21 09:40:39;;;;;;;4.97;1.25;;;;;;;;;;4993300;28;93110;-65
2022/09/21 09:43:13;;;;;;;3.08;1.30;;;;;;;;;;4994069;28;92491;-65
2022/09/21 09:45:39;;;;;;;1.38;1.27;;;;;;;;;;5000510;28;92902;-65
2022/09/21 09:48:08;;;;;;;2.63;1.10;;;;;;;;;;5017263;28;92929;-65
2022/09/21 09:50:37;;;;;;;1.63;1.30;;;;;;;;;;5006595;28;92414;-65
2022/09/21 09:53:08;;;;;;;1.63;1.20;;;;;;;;;;4993368;28;93173;-65
2022/09/21 09:55:37;;;;;;;1.17;1.17;;;;;;;;;;4992709;28;95777;-65
2022/09/21 09:58:03;;;;;;;1.00;1.00;;;;;;;;;;4992894;28;92484;-65
2022/09/21 10:00:30;;;;;;;2.08;1.20;;;;;;;;;;4993232;28;94004;-65
2022/09/21 10:02:57;;;;;;;2.17;1.45;;;;;;;;;;4994336;28;93249;-65
2022/09/21 10:05:29;;;;;;;1.58;1.45;;;;;;;;;;5005655;28;92441;-65
2022/09/21 10:07:56;;;;;;;1.98;1.38;;;;;;;;;;4994138;28;93194;-65
2022/09/21 10:10:28;;;;;;;1.50;1.05;;;;;;;;;;5009401;28;94912;-65
2022/09/21 10:12:56;;;;;;;1.75;1.27;;;;;;;;;;4998195;28;93933;-65
2022/09/21 10:15:23;;;;;;;2.72;1.30;;;;;;;;;;4996673;28;94231;-64
2022/09/21 10:17:57;;;;;;;3.60;1.85;;;;;;;;;;4997691;28;92655;-65
2022/09/21 10:20:24;;;;;;;2.60;1.25;;;;;;;;;;4995961;28;94657;-65
2022/09/21 10:22:54;;;;;;;4.70;1.20;;;;;;;;;;4996725;28;94075;-65
2022/09/21 10:25:20;;;;;;;4.40;1.48;;;;;;;;;;4996770;28;92451;-65
2022/09/21 10:27:48;;;;;;;3.20;1.15;;;;;;;;;;4996764;28;94319;-65
2022/09/21 10:30:29;;;;;;;1.08;1.00;;;;;;;;;;4997017;28;93324;-65
2022/09/21 10:32:57;;;;;;;1.38;1.20;;;;;;;;;;5001740;27;93426;-65
2022/09/21 10:35:24;;;;;;;1.30;1.13;;;;;;;;;;4996589;28;93541;-65
2022/09/21 10:38:10;;;;;;;1.35;1.25;;;;;;;;;;4998242;28;91745;-65
2022/09/21 10:40:38;;;;;;;1.38;1.10;;;;;;;;;;4997667;28;93239;-65
2022/09/21 10:43:04;;;;;;;3.80;1.30;;;;;;;;;;4996345;28;92978;-65
2022/09/21 10:45:33;;;;;;;1.52;1.15;;;;;;;;;;4995738;28;95047;-65
2022/09/21 10:48:07;;;;;;;3.40;1.10;;;;;;;;;;4997464;28;95280;-65
2022/09/21 10:50:48;;;;;;;1.92;1.20;;;;;;;;;;4996403;28;93281;-65
2022/09/21 10:53:28;;;;;;;3.42;1.35;;;;;;;;;;4997019;28;92405;-65
2022/09/21 10:56:00;;;;;;;1.65;1.30;;;;;;;;;;4999786;28;93097;-65
2022/09/21 10:59:01;;;;;;;1.98;1.00;;;;;;;;;;4997168;28;92611;-65
2022/09/21 11:01:28;;;;;;;1.70;1.20;;;;;;;;;;4997837;27;92434;-65
2022/09/21 11:04:01;;;;;;;1.73;0.95;;;;;;;;;;5011894;28;92626;-65
2022/09/21 11:06:34;;;;;;;1.10;1.00;;;;;;;;;;5016952;28;92459;-65
2022/09/21 11:09:12;;;;;;;1.00;1.00;;;;;;;;;;5016309;28;92332;-65
2022/09/21 11:11:58;;;;;;;1.58;1.20;;;;;;;;;;5014396;28;95912;-65
2022/09/21 11:14:27;;;;;;;1.27;0.80;;;;;;;;;;5016903;28;92468;-65
2022/09/21 11:16:53;;;;;;;2.05;1.20;;;;;;;;;;5016926;28;93093;-66
2022/09/21 11:19:24;;;;;;;1.10;1.00;;;;;;;;;;5018056;28;94035;-65
2022/09/21 11:21:54;;;;;;;3.05;1.00;;;;;;;;;;5015593;28;92789;-65
2022/09/21 11:24:26;;;;;;;1.83;1.02;;;;;;;;;;5014999;28;93274;-65
2022/09/21 11:27:02;;;;;;;1.48;0.90;;;;;;;;;;5016500;28;92509;-65
2022/09/21 11:29:41;;;;;;;0.93;0.90;;;;;;;;;;5017048;28;92859;-65
2022/09/21 11:32:42;;;;;;;1.20;1.10;;;;;;;;;;5014728;28;93341;-65
2022/09/21 11:35:27;;;;;;;0.90;0.90;;;;;;;;;;4973790;28;92430;-65
2022/09/21 11:38:04;;;;;;;1.42;1.13;;;;;;;;;;5011461;28;94678;-65
2022/09/21 11:40:34;;;;;;;1.00;0.70;;;;;;;;;;5015531;28;93959;-65
2022/09/21 11:43:16;;;;;;;1.60;0.93;;;;;;;;;;5019430;28;92424;-65
2022/09/21 11:45:59;;;;;;;2.05;0.82;;;;;;;;;;5015050;28;93141;-65
2022/09/21 11:48:37;;;;;;;2.45;1.17;;;;;;;;;;5015794;28;92453;-65
2022/09/21 11:51:04;;;;;;;1.80;0.90;;;;;;;;;;5015541;28;92910;-65
2022/09/21 11:53:56;;;;;;;1.67;1.00;;;;;;;;;;5014740;28;93384;-65
2022/09/21 11:56:25;;;;;;;2.97;1.13;;;;;;;;;;5016135;28;91709;-65
2022/09/21 11:59:15;;;;;;;0.70;0.70;;;;;;;;;;5015219;28;92391;-65
2022/09/21 12:01:51;;;;;;;4.28;1.15;;;;;;;;;;5015483;28;93457;-65
2022/09/21 12:04:30;;;;;;;4.05;1.10;;;;;;;;;;5016826;28;95661;-65
2022/09/21 12:06:56;;;;;;;1.17;0.90;;;;;;;;;;5014141;28;93419;-65
2022/09/21 12:09:29;;;;;;;1.10;1.00;;;;;;;;;;5015942;28;92814;-65
2022/09/21 12:11:55;;;;;;;1.00;1.00;;;;;;;;;;5015731;28;93248;-65
2022/09/21 12:14:38;;;;;;;0.93;0.93;;;;;;;;;;5015085;28;93221;-65
2022/09/21 12:17:15;;;;;;;1.00;0.80;;;;;;;;;;5015776;28;92433;-65
2022/09/21 12:19:42;;;;;;;1.42;1.00;;;;;;;;;;4995560;28;96151;-65
2022/09/21 12:22:11;;;;;;;0.80;0.80;;;;;;;;;;4995069;28;92482;-65
2022/09/21 12:24:49;;;;;;;1.08;0.80;;;;;;;;;;4995384;28;92469;-65
2022/09/21 12:27:34;;;;;;;1.35;0.80;;;;;;;;;;4997809;28;93175;-65
2022/09/21 12:30:03;;;;;;;1.67;1.08;;;;;;;;;;4994069;28;96025;-65
2022/09/21 12:32:46;;;;;;;2.60;0.93;;;;;;;;;;4994788;28;95194;-64
2022/09/21 12:35:14;;;;;;;5.28;1.15;;;;;;;;;;5007375;28;93063;-68
2022/09/21 12:37:50;;;;;;;3.40;1.13;;;;;;;;;;5013854;28;94608;-65
2022/09/21 12:40:26;;;;;;;1.90;0.73;;;;;;;;;;4995568;28;93192;-65
2022/09/21 12:42:53;;;;;;;5.40;1.00;;;;;;;;;;4994440;28;93312;-65
2022/09/21 12:45:25;;;;;;;2.08;1.20;;;;;;;;;;4994269;28;92427;-65
2022/09/21 12:48:07;;;;;;;1.30;1.00;;;;;;;;;;5009613;28;92960;-64
2022/09/21 12:50:36;;;;;;;3.72;1.10;;;;;;;;;;5015045;28;93066;-64
2022/09/21 12:53:02;;;;;;;5.55;1.30;;;;;;;;;;4994621;28;92990;-64
2022/09/21 12:55:40;;;;;;;3.03;1.00;;;;;;;;;;4992664;28;96028;-64
2022/09/21 12:58:25;;;;;;;1.30;1.15;;;;;;;;;;4993779;28;92718;-64
2022/09/21 13:01:10;;;;;;;1.08;0.70;;;;;;;;;;4995324;28;93919;-64
2022/09/21 13:03:43;;;;;;;1.75;1.00;;;;;;;;;;4997132;28;94426;-64
2022/09/21 13:06:36;;;;;;;1.03;1.00;;;;;;;;;;5014831;28;92551;-64
2022/09/21 13:09:03;;;;;;;2.72;1.00;;;;;;;;;;4995121;28;93035;-64
2022/09/21 13:11:48;;;;;;;6.50;1.10;;;;;;;;;;4994776;27;93284;-64
2022/09/21 13:14:16;;;;;;;2.08;1.00;;;;;;;;;;4998940;28;91605;-64
2022/09/21 13:16:42;;;;;;;2.47;0.80;;;;;;;;;;4993904;28;93194;-64
2022/09/21 13:19:21;;;;;;;2.88;1.00;;;;;;;;;;4994175;28;92388;-65
2022/09/21 13:22:14;;;;;;;3.00;1.15;;;;;;;;;;4993403;28;94630;-64
2022/09/21 13:24:41;;;;;;;2.05;1.13;;;;;;;;;;5002646;28;93268;-64
2022/09/21 13:27:08;;;;;;;1.90;1.02;;;;;;;;;;5014270;28;92488;-64
2022/09/21 13:29:35;;;;;;;2.28;1.02;;;;;;;;;;5015140;28;92918;-64
2022/09/21 13:32:20;;;;;;;2.97;0.95;;;;;;;;;;5008489;28;93360;-64
2022/09/21 13:34:49;;;;;;;1.27;0.90;;;;;;;;;;4994273;28;92707;-64
2022/09/21 13:37:18;;;;;;;0.98;0.80;;;;;;;;;;4997020;28;93094;-64
2022/09/21 13:40:00;;;;;;;2.15;0.90;;;;;;;;;;4994889;28;93356;-63
2022/09/21 13:42:35;;;;;;;4.80;0.90;;;;;;;;;;4995598;28;93048;-63
2022/09/21 13:45:14;;;;;;;3.30;1.73;;;;;;;;;;4996023;28;93244;-64
2022/09/21 13:47:49;;;;;;;3.45;1.25;;;;;;;;;;4999585;28;94914;-64
2022/09/21 13:50:23;;;;;;;2.83;0.95;;;;;;;;;;5013881;28;95754;-64
2022/09/21 13:52:56;;;;;;;5.00;1.15;;;;;;;;;;5006844;28;93630;-64
2022/09/21 13:55:30;;;;;;;2.65;1.00;;;;;;;;;;5007633;28;92438;-64
2022/09/21 13:58:00;;;;;;;6.82;1.05;;;;;;;;;;5004077;28;93791;-64
2022/09/21 14:00:34;;;;;;;3.22;1.15;;;;;;;;;;5011856;28;93218;-64
2022/09/21 14:03:21;;;;;;;1.75;0.93;;;;;;;;;;5007094;28;92940;-64
2022/09/21 14:05:50;;;;;;;4.85;1.27;;;;;;;;;;5009481;28;92499;-64
2022/09/21 14:08:22;;;;;;;2.33;0.90;;;;;;;;;;4997287;28;94380;-64
2022/09/21 14:10:54;;;;;;;2.78;1.15;;;;;;;;;;4997372;28;94148;-64
2022/09/21 14:13:33;;;;;;;2.72;1.02;;;;;;;;;;5004280;28;95841;-64
2022/09/21 14:16:18;;;;;;;0.80;0.80;;;;;;;;;;4996484;28;92678;-64
2022/09/21 14:18:45;;;;;;;1.95;0.90;;;;;;;;;;5002850;28;94071;-64
2022/09/21 14:21:19;;;;;;;2.25;1.13;;;;;;;;;;4998697;28;93437;-63
2022/09/21 14:24:00;;;;;;;1.33;0.90;;;;;;;;;;4998583;28;93119;-64
2022/09/21 14:26:56;;;;;;;1.75;1.30;;;;;;;;;;4996868;28;93699;-64
2022/09/21 14:29:44;;;;;;;1.23;0.90;;;;;;;;;;4959461;28;96087;-64
2022/09/21 14:32:15;;;;;;;2.58;0.80;;;;;;;;;;4999285;28;92895;-64
2022/09/21 14:34:43;;;;;;;0.70;0.70;;;;;;;;;;5000244;28;93145;-64
2022/09/21 14:37:26;;;;;;;1.67;0.98;;;;;;;;;;5017312;28;92441;-64
2022/09/21 14:39:53;;;;;;;0.85;0.73;;;;;;;;;;5015666;28;94993;-64
2022/09/21 14:42:24;;;;;;;1.00;1.00;;;;;;;;;;5015972;28;93368;-64
2022/09/21 14:44:50;;;;;;;1.73;0.90;;;;;;;;;;5012408;28;94308;-64
2022/09/21 14:47:35;;;;;;;2.10;0.80;;;;;;;;;;5017006;28;93355;-64
2022/09/21 14:50:07;;;;;;;1.15;0.80;;;;;;;;;;4998663;28;92907;-64
2022/09/21 14:52:40;;;;;;;2.05;0.90;;;;;;;;;;4997553;28;92899;-64
2022/09/21 14:55:14;;;;;;;3.03;1.27;;;;;;;;;;4995279;28;93494;-64
2022/09/21 14:57:59;;;;;;;1.05;0.80;;;;;;;;;;4997648;28;91803;-64
2022/09/21 15:00:38;;;;;;;1.52;1.00;;;;;;;;;;4996377;28;93279;-64
2022/09/21 15:03:23;;;;;;;1.02;0.90;;;;;;;;;;4995811;28;93470;-64
2022/09/21 15:05:54;;;;;;;1.73;1.00;;;;;;;;;;4995313;28;94827;-64
2022/09/21 15:11:11;;;;;;;0.65;0.63;;;;;;;;;;4996006;28;92520;-64
2022/09/21 15:13:47;;;;;;;1.83;0.80;;;;;;;;;;4998705;28;93798;-64